Time;durP1;ratioP1;P1;durP2;ratioP2;P2;SDS_P1;SDS_P2;PMS_P1;PMS_P2;Temp;Humidity;BMP_temperature;BMP_pressure;BME280_temperature;BME280_humidity;BME280_pressure;Samples;Min_cycle;Max_cycle;Signal;HPM_P1;HPM_P2
2021/12/19 00:00:12;0.00;0.00;0.62;0.00;0.00;0.62;3.93;2.60;;;22.90;30.40;;;;;;2259186;61;20371;-63
2021/12/19 00:09:05;0.00;0.00;0.62;0.00;0.00;0.62;2.90;2.10;;;22.90;30.40;;;;;;2257812;61;20358;-59
2021/12/19 00:11:50;0.00;0.00;0.62;0.00;0.00;0.62;2.77;2.27;;;22.90;30.40;;;;;;2258052;61;20374;-59
2021/12/19 00:14:36;0.00;0.00;0.62;0.00;0.00;0.62;2.50;1.97;;;22.90;30.40;;;;;;2257834;61;20397;-60
2021/12/19 00:17:21;0.00;0.00;0.62;0.00;0.00;0.62;2.60;2.07;;;22.90;30.40;;;;;;2257756;61;20683;-58
2021/12/19 00:20:07;0.00;0.00;0.62;0.00;0.00;0.62;2.90;2.10;;;22.90;30.40;;;;;;2257276;61;20366;-64
2021/12/19 00:22:51;0.00;0.00;0.62;0.00;0.00;0.62;2.93;1.80;;;22.90;30.40;;;;;;2257881;61;20369;-64
2021/12/19 00:25:36;0.00;0.00;0.62;0.00;0.00;0.62;2.97;2.30;;;22.90;30.40;;;;;;2257805;61;20374;-62
2021/12/19 00:28:21;0.00;0.00;0.62;0.00;0.00;0.62;2.90;2.17;;;22.90;30.40;;;;;;2257275;61;20440;-59
2021/12/19 00:31:08;0.00;0.00;0.62;0.00;0.00;0.62;2.63;2.20;;;22.90;30.40;;;;;;2257846;61;20600;-61
2021/12/19 00:33:53;0.00;0.00;0.62;0.00;0.00;0.62;3.83;1.67;;;22.90;30.30;;;;;;2257812;61;20391;-62
2021/12/19 00:36:37;0.00;0.00;0.62;0.00;0.00;0.62;2.73;1.90;;;22.90;30.40;;;;;;2257555;61;20358;-59
2021/12/19 00:39:22;0.00;0.00;0.62;0.00;0.00;0.62;2.30;1.90;;;22.90;30.30;;;;;;2257763;61;20387;-61
2021/12/19 00:42:08;0.00;0.00;0.62;0.00;0.00;0.62;2.53;1.97;;;22.90;30.30;;;;;;2256944;61;20387;-62
2021/12/19 00:44:53;0.00;0.00;0.62;0.00;0.00;0.62;2.27;1.73;;;22.90;30.30;;;;;;2254716;61;20375;-58
2021/12/19 00:47:39;0.00;0.00;0.62;0.00;0.00;0.62;2.80;1.70;;;22.90;30.30;;;;;;2256321;61;20362;-59
2021/12/19 00:50:26;0.00;0.00;0.62;0.00;0.00;0.62;2.60;1.93;;;22.90;30.30;;;;;;2252868;61;20374;-62
2021/12/19 00:53:11;0.00;0.00;0.62;0.00;0.00;0.62;2.53;1.73;;;22.90;30.40;;;;;;2254324;61;20435;-58
2021/12/19 00:55:55;0.00;0.00;0.62;0.00;0.00;0.62;2.73;1.80;;;22.90;30.50;;;;;;2256137;61;20375;-62
2021/12/19 00:58:40;0.00;0.00;0.62;0.00;0.00;0.62;2.53;1.80;;;22.90;30.50;;;;;;2251996;61;20398;-60
2021/12/19 01:01:25;0.00;0.00;0.62;0.00;0.00;0.62;2.77;2.10;;;22.90;30.50;;;;;;2254861;61;20366;-61
2021/12/19 01:04:17;0.00;0.00;0.62;0.00;0.00;0.62;2.20;1.60;;;23.00;30.60;;;;;;2256873;61;20409;-63
2021/12/19 01:07:03;0.00;0.00;0.62;0.00;0.00;0.62;2.10;1.60;;;22.90;30.50;;;;;;2257947;61;20362;-61
2021/12/19 01:09:47;0.00;0.00;0.62;0.00;0.00;0.62;2.30;1.90;;;23.00;30.60;;;;;;2257835;61;20355;-60
2021/12/19 01:12:33;0.00;0.00;0.62;0.00;0.00;0.62;1.87;1.40;;;23.00;30.60;;;;;;2256799;61;20390;-56
2021/12/19 01:15:18;0.00;0.00;0.62;0.00;0.00;0.62;2.60;1.73;;;23.00;30.60;;;;;;2257733;61;20471;-58
2021/12/19 01:18:04;0.00;0.00;0.62;0.00;0.00;0.62;2.50;1.73;;;23.00;30.60;;;;;;2257716;61;20378;-58
2021/12/19 01:20:50;0.00;0.00;0.62;0.00;0.00;0.62;3.30;1.90;;;23.00;30.60;;;;;;2257156;61;20583;-57
2021/12/19 01:23:37;0.00;0.00;0.62;0.00;0.00;0.62;2.27;1.57;;;23.00;30.60;;;;;;2257507;61;20421;-59
2021/12/19 01:26:21;0.00;0.00;0.62;0.00;0.00;0.62;2.50;1.80;;;23.00;30.50;;;;;;2257042;61;20451;-62
2021/12/19 01:29:06;0.00;0.00;0.62;0.00;0.00;0.62;2.27;1.60;;;23.00;30.50;;;;;;2257980;61;20374;-55
2021/12/19 01:31:51;0.00;0.00;0.62;0.00;0.00;0.62;2.40;1.60;;;23.00;30.40;;;;;;2257703;61;20358;-59
2021/12/19 01:34:35;0.00;0.00;0.62;0.00;0.00;0.62;2.30;1.70;;;23.10;30.50;;;;;;2256401;61;20418;-59
2021/12/19 01:37:21;0.00;0.00;0.62;0.00;0.00;0.62;2.00;1.50;;;23.10;30.50;;;;;;2258122;61;20362;-56
2021/12/19 01:40:08;0.00;0.00;0.62;0.00;0.00;0.62;1.93;1.30;;;23.00;30.40;;;;;;2257499;61;20378;-60
2021/12/19 01:42:56;0.00;0.00;0.62;0.00;0.00;0.62;2.37;1.90;;;23.00;30.40;;;;;;2257013;61;20386;-58
2021/12/19 01:45:41;0.00;0.00;0.62;0.00;0.00;0.62;2.70;2.07;;;23.10;30.40;;;;;;2257342;61;20399;-55
2021/12/19 01:48:26;0.00;0.00;0.62;0.00;0.00;0.62;2.13;1.27;;;23.10;30.40;;;;;;2257256;61;20382;-54
2021/12/19 01:51:11;0.00;0.00;0.62;0.00;0.00;0.62;2.43;1.50;;;23.10;30.40;;;;;;2257875;61;20466;-57
2021/12/19 01:53:57;0.00;0.00;0.62;0.00;0.00;0.62;2.10;1.57;;;23.10;30.40;;;;;;2257546;61;20394;-55
2021/12/19 01:56:42;0.00;0.00;0.62;0.00;0.00;0.62;1.73;1.50;;;23.00;30.30;;;;;;2256779;61;20490;-59
2021/12/19 01:59:26;0.00;0.00;0.62;0.00;0.00;0.62;1.67;1.20;;;23.10;30.30;;;;;;2258009;61;20430;-60
2021/12/19 02:02:11;0.00;0.00;0.62;0.00;0.00;0.62;2.40;1.43;;;23.10;30.30;;;;;;2257284;61;20431;-57
2021/12/19 02:04:56;0.00;0.00;0.62;0.00;0.00;0.62;2.03;1.67;;;23.10;30.30;;;;;;2257209;61;20494;-58
2021/12/19 02:07:46;0.00;0.00;0.62;0.00;0.00;0.62;2.03;1.30;;;23.10;30.30;;;;;;2257598;61;20350;-60
2021/12/19 02:10:34;0.00;0.00;0.62;0.00;0.00;0.62;2.00;1.30;;;23.10;30.30;;;;;;2257188;61;20395;-56
2021/12/19 02:13:20;0.00;0.00;0.62;0.00;0.00;0.62;2.23;1.40;;;23.10;30.30;;;;;;2257379;61;20386;-57
2021/12/19 02:16:04;0.00;0.00;0.62;0.00;0.00;0.62;2.10;1.30;;;23.10;30.30;;;;;;2257415;61;20758;-59
2021/12/19 02:18:49;0.00;0.00;0.62;0.00;0.00;0.62;2.40;1.47;;;23.10;30.30;;;;;;2257056;61;20390;-58
2021/12/19 02:21:36;0.00;0.00;0.62;0.00;0.00;0.62;2.00;1.40;;;23.10;30.90;;;;;;2257753;61;20592;-57
2021/12/19 02:24:20;0.00;0.00;0.62;0.00;0.00;0.62;2.73;1.60;;;23.10;30.30;;;;;;2256884;61;20387;-60
2021/12/19 02:27:05;0.00;0.00;0.62;0.00;0.00;0.62;2.63;2.00;;;23.10;30.20;;;;;;2257082;61;20363;-61
2021/12/19 02:29:49;0.00;0.00;0.62;0.00;0.00;0.62;2.90;2.00;;;23.10;30.10;;;;;;2257336;61;20401;-56
2021/12/19 02:32:35;0.00;0.00;0.62;0.00;0.00;0.62;2.47;1.60;;;23.10;30.10;;;;;;2257232;61;20406;-58
2021/12/19 02:35:25;0.00;0.00;0.62;0.00;0.00;0.62;4.10;2.40;;;23.00;30.00;;;;;;2257685;61;20383;-59
2021/12/19 02:50:13;0.00;0.00;0.62;0.00;0.00;0.62;3.10;2.00;;;22.90;29.60;;;;;;2257643;61;20371;-56
2021/12/19 02:52:59;0.00;0.00;0.62;0.00;0.00;0.62;3.30;2.03;;;22.90;29.50;;;;;;2257179;61;20359;-57
2021/12/19 02:55:45;0.00;0.00;0.62;0.00;0.00;0.62;2.63;2.20;;;22.90;29.40;;;;;;2256807;61;20386;-58
2021/12/19 02:58:30;0.00;0.00;0.62;0.00;0.00;0.62;6.10;1.93;;;22.80;29.20;;;;;;2257625;61;20390;-59
2021/12/19 03:01:18;0.00;0.00;0.62;0.00;0.00;0.62;2.40;1.60;;;22.70;29.10;;;;;;2257406;61;20379;-57
2021/12/19 03:04:03;0.00;0.00;0.62;0.00;0.00;0.62;2.23;1.70;;;22.70;29.10;;;;;;2256874;61;20422;-60
2021/12/19 03:06:48;0.00;0.00;0.62;0.00;0.00;0.62;3.73;1.73;;;22.70;29.20;;;;;;2257327;61;20422;-59
2021/12/19 03:18:14;0.00;0.00;0.62;0.00;0.00;0.62;3.53;1.87;;;22.60;29.20;;;;;;2256799;61;20375;-56
2021/12/19 03:20:59;0.00;0.00;0.62;0.00;0.00;0.62;2.60;1.80;;;22.50;29.20;;;;;;2257638;61;20729;-56
2021/12/19 03:23:44;0.00;0.00;0.62;0.00;0.00;0.62;2.27;1.83;;;22.50;29.20;;;;;;2257103;61;20461;-53
2021/12/19 03:26:29;0.00;0.00;0.62;0.00;0.00;0.62;2.27;1.87;;;22.50;29.20;;;;;;2259234;61;20351;-58
2021/12/19 03:29:14;0.00;0.00;0.62;0.00;0.00;0.62;3.77;1.77;;;22.50;29.20;;;;;;2257312;61;20414;-56
2021/12/19 03:31:59;0.00;0.00;0.62;0.00;0.00;0.62;2.30;1.70;;;22.40;29.10;;;;;;2257014;61;20580;-57
2021/12/19 03:34:44;0.00;0.00;0.62;0.00;0.00;0.62;2.03;1.50;;;22.40;29.10;;;;;;2257610;61;20395;-59
2021/12/19 03:37:28;0.00;0.00;0.62;0.00;0.00;0.62;2.00;1.50;;;22.40;29.10;;;;;;2257397;61;20742;-56
2021/12/19 03:40:22;0.00;0.00;0.62;0.00;0.00;0.62;2.93;2.10;;;22.30;29.00;;;;;;2257221;61;20432;-54
2021/12/19 03:43:10;0.00;0.00;0.62;0.00;0.00;0.62;2.90;1.70;;;22.30;29.50;;;;;;2258060;61;20370;-58
2021/12/19 03:45:56;0.00;0.00;0.62;0.00;0.00;0.62;2.33;1.60;;;22.30;29.00;;;;;;2257991;61;20435;-57
2021/12/19 03:48:42;0.00;0.00;0.62;0.00;0.00;0.62;2.50;1.80;;;22.30;29.00;;;;;;2257576;61;20382;-58
2021/12/19 03:51:27;0.00;0.00;0.62;0.00;0.00;0.62;2.00;1.60;;;22.30;29.00;;;;;;2257958;61;20763;-61
2021/12/19 03:54:11;0.00;0.00;0.62;0.00;0.00;0.62;2.30;2.00;;;22.20;28.90;;;;;;2257496;61;20410;-62
2021/12/19 03:56:56;0.00;0.00;0.62;0.00;0.00;0.62;3.07;1.67;;;22.20;29.50;;;;;;2258434;61;20434;-64
2021/12/19 03:59:43;0.00;0.00;0.62;0.00;0.00;0.62;2.43;1.47;;;22.20;29.00;;;;;;2258151;61;20441;-63
2021/12/19 04:02:30;0.00;0.00;0.62;0.00;0.00;0.62;2.63;1.47;;;22.10;29.00;;;;;;2257238;61;20430;-56
2021/12/19 04:05:15;0.00;0.00;0.62;0.00;0.00;0.62;2.10;1.80;;;22.10;29.50;;;;;;2258506;61;20367;-54
2021/12/19 04:07:59;0.00;0.00;0.62;0.00;0.00;0.62;2.77;1.93;;;22.10;29.00;;;;;;2258165;61;20359;-56
2021/12/19 04:10:46;0.00;0.00;0.62;0.00;0.00;0.62;3.43;1.80;;;22.10;29.10;;;;;;2257476;61;20378;-56
2021/12/19 04:13:30;0.00;0.00;0.62;0.00;0.00;0.62;2.60;1.50;;;22.00;29.00;;;;;;2257949;61;20383;-54
2021/12/19 04:16:15;0.00;0.00;0.62;0.00;0.00;0.62;1.80;1.53;;;22.10;29.10;;;;;;2257680;61;20362;-59
2021/12/19 04:19:01;0.00;0.00;0.62;0.00;0.00;0.62;2.33;1.97;;;22.00;29.00;;;;;;2258167;61;20389;-61
2021/12/19 04:21:46;0.00;0.00;0.62;0.00;0.00;0.62;4.03;1.90;;;22.00;28.90;;;;;;2257879;61;20575;-56
2021/12/19 04:24:30;0.00;0.00;0.62;0.00;0.00;0.62;2.27;1.80;;;22.00;28.90;;;;;;2256986;61;20379;-57
2021/12/19 04:27:15;0.00;0.00;0.62;0.00;0.00;0.62;2.47;1.50;;;22.00;28.80;;;;;;2258207;61;20414;-54
2021/12/19 04:29:59;0.00;0.00;0.62;0.00;0.00;0.62;2.50;1.80;;;21.90;28.70;;;;;;2257841;61;20359;-57
2021/12/19 04:32:54;0.00;0.00;0.62;0.00;0.00;0.62;3.43;1.77;;;21.90;28.80;;;;;;2257036;61;20358;-51
2021/12/19 04:35:44;0.00;0.00;0.62;0.00;0.00;0.62;2.73;1.90;;;21.80;28.70;;;;;;2257843;61;20490;-54
2021/12/19 04:42:04;0.00;0.00;0.62;0.00;0.00;0.62;3.27;1.87;;;21.70;28.70;;;;;;2258112;61;20358;-54
2021/12/19 04:50:56;0.00;0.00;0.62;0.00;0.00;0.62;2.17;1.30;;;21.70;28.70;;;;;;2257819;61;20402;-61
2021/12/19 04:56:46;0.00;0.00;0.62;0.00;0.00;0.62;2.70;1.73;;;21.50;28.70;;;;;;2258135;61;20355;-60
2021/12/19 05:14:29;0.00;0.00;0.62;0.00;0.00;0.62;3.40;1.20;;;21.40;28.90;;;;;;2257557;61;20390;-56
2021/12/19 05:17:20;0.00;0.00;0.62;0.00;0.00;0.62;2.60;1.40;;;21.40;29.00;;;;;;2257228;61;20359;-55
2021/12/19 05:20:13;0.00;0.00;0.62;0.00;0.00;0.62;3.83;1.37;;;21.40;29.00;;;;;;2257421;61;20621;-58
2021/12/19 05:23:17;0.00;0.00;0.62;0.00;0.00;0.62;2.07;1.47;;;21.40;28.90;;;;;;2257441;61;20379;-60
2021/12/19 05:26:02;0.00;0.00;0.62;0.00;0.00;0.62;2.00;1.53;;;21.30;28.80;;;;;;2258012;61;20358;-60
2021/12/19 05:28:48;0.00;0.00;0.62;0.00;0.00;0.62;4.90;2.10;;;21.30;28.80;;;;;;2257624;61;20706;-60
2021/12/19 05:31:33;0.00;0.00;0.62;0.00;0.00;0.62;3.33;2.03;;;21.30;28.80;;;;;;2257023;61;20719;-58
2021/12/19 05:34:18;0.00;0.00;0.62;0.00;0.00;0.62;2.70;1.70;;;21.20;28.70;;;;;;2257724;61;20399;-60
2021/12/19 05:46:18;0.00;0.00;0.62;0.00;0.00;0.62;3.87;2.27;;;21.10;28.70;;;;;;2256882;61;20398;-58
2021/12/19 05:49:04;0.00;0.00;0.62;0.00;0.00;0.62;3.67;2.03;;;21.10;28.70;;;;;;2257764;61;20363;-54
2021/12/19 05:51:49;0.00;0.00;0.62;0.00;0.00;0.62;2.13;1.60;;;21.10;28.70;;;;;;2259821;61;20406;-57
2021/12/19 05:54:33;0.00;0.00;0.62;0.00;0.00;0.62;2.83;2.03;;;21.00;28.70;;;;;;2257020;61;20442;-59
2021/12/19 05:57:18;0.00;0.00;0.62;0.00;0.00;0.62;2.10;1.83;;;21.10;28.80;;;;;;2257714;61;20634;-62
2021/12/19 06:00:05;0.00;0.00;0.62;0.00;0.00;0.62;3.50;2.10;;;21.00;28.80;;;;;;2257201;61;20390;-56
2021/12/19 06:02:54;0.00;0.00;0.62;0.00;0.00;0.62;5.20;1.60;;;21.00;28.90;;;;;;2259719;61;20379;-54
2021/12/19 06:05:38;0.00;0.00;0.62;0.00;0.00;0.62;2.80;2.20;;;21.00;28.90;;;;;;2257592;61;20482;-63
2021/12/19 06:08:23;0.00;0.00;0.62;0.00;0.00;0.62;3.40;1.40;;;21.00;28.90;;;;;;2256929;61;20344;-59
2021/12/19 06:11:08;0.00;0.00;0.62;0.00;0.00;0.62;3.37;1.80;;;21.00;29.00;;;;;;2257689;61;20763;-61
2021/12/19 06:13:52;0.00;0.00;0.62;0.00;0.00;0.62;3.70;2.10;;;21.00;29.00;;;;;;2257357;61;20378;-56
2021/12/19 06:16:37;0.00;0.00;0.62;0.00;0.00;0.62;4.50;2.63;;;21.00;29.00;;;;;;2257105;61;20359;-58
2021/12/19 06:19:23;0.00;0.00;0.62;0.00;0.00;0.62;2.43;2.10;;;21.00;28.90;;;;;;2257519;61;20426;-58
2021/12/19 06:22:08;0.00;0.00;0.62;0.00;0.00;0.62;3.80;2.60;;;21.00;28.90;;;;;;2257260;61;20827;-57
2021/12/19 06:24:52;0.00;0.00;0.62;0.00;0.00;0.62;4.93;2.70;;;21.00;28.90;;;;;;2257816;61;20382;-60
2021/12/19 06:27:37;0.00;0.00;0.62;0.00;0.00;0.62;3.27;2.37;;;20.90;28.80;;;;;;2257677;61;20393;-53
2021/12/19 06:30:22;0.00;0.00;0.62;0.00;0.00;0.62;4.87;3.13;;;21.00;28.90;;;;;;2256533;61;20350;-51
2021/12/19 06:33:07;0.00;0.00;0.62;0.00;0.00;0.62;5.63;3.23;;;20.90;28.80;;;;;;2257640;61;20386;-59
2021/12/19 06:35:53;0.00;0.00;0.62;0.00;0.00;0.62;3.90;3.23;;;20.90;28.80;;;;;;2257481;61;20402;-57
2021/12/19 06:38:38;0.00;0.00;0.62;0.00;0.00;0.62;4.50;3.60;;;20.80;28.80;;;;;;2259293;61;20378;-60
2021/12/19 06:41:22;0.00;0.00;0.62;0.00;0.00;0.62;6.23;3.50;;;20.80;28.80;;;;;;2257438;61;20698;-57
2021/12/19 06:44:07;0.00;0.00;0.62;0.00;0.00;0.62;4.30;3.07;;;20.80;28.70;;;;;;2257422;61;20426;-56
2021/12/19 06:46:52;0.00;0.00;0.62;0.00;0.00;0.62;4.73;3.73;;;20.80;28.70;;;;;;2257313;61;20390;-56
2021/12/19 06:49:36;0.00;0.00;0.62;0.00;0.00;0.62;8.23;3.57;;;20.70;28.70;;;;;;2257323;61;20378;-61
2021/12/19 06:52:23;0.00;0.00;0.62;0.00;0.00;0.62;5.33;3.83;;;20.80;28.80;;;;;;2256570;61;20359;-59
2021/12/19 06:55:09;0.00;0.00;0.62;0.00;0.00;0.62;7.13;4.13;;;20.70;28.70;;;;;;2257620;61;20490;-59
2021/12/19 06:57:54;0.00;0.00;0.62;0.00;0.00;0.62;6.17;3.73;;;20.70;28.80;;;;;;2257458;61;20383;-57
2021/12/19 07:00:39;0.00;0.00;0.62;0.00;0.00;0.62;5.20;3.67;;;20.60;28.70;;;;;;2256621;61;20378;-57
2021/12/19 07:03:24;0.00;0.00;0.62;0.00;0.00;0.62;4.63;3.40;;;20.70;28.90;;;;;;2257320;61;20426;-59
2021/12/19 07:06:09;0.00;0.00;0.62;0.00;0.00;0.62;10.50;3.90;;;20.60;28.80;;;;;;2257484;61;20473;-58
2021/12/19 07:08:55;0.00;0.00;0.62;0.00;0.00;0.62;6.57;3.97;;;20.60;28.80;;;;;;2257299;61;20358;-55
2021/12/19 07:11:40;0.00;0.00;0.62;0.00;0.00;0.62;5.30;3.60;;;20.60;28.80;;;;;;2257297;61;20360;-59
2021/12/19 07:14:24;0.00;0.00;0.62;0.00;0.00;0.62;5.43;4.00;;;20.60;28.80;;;;;;2257153;61;20378;-58
2021/12/19 07:17:09;0.00;0.00;0.62;0.00;0.00;0.62;5.53;3.47;;;20.50;28.80;;;;;;2258357;61;20351;-57
2021/12/19 07:19:53;0.00;0.00;0.62;0.00;0.00;0.62;4.60;3.20;;;20.50;28.80;;;;;;2258114;61;20382;-55
2021/12/19 07:22:38;0.00;0.00;0.62;0.00;0.00;0.62;4.53;3.10;;;20.50;28.80;;;;;;2257226;61;20722;-57
2021/12/19 07:25:24;0.00;0.00;0.62;0.00;0.00;0.62;6.20;3.20;;;20.40;28.80;;;;;;2258340;61;20358;-58
2021/12/19 07:28:10;0.00;0.00;0.62;0.00;0.00;0.62;4.40;3.17;;;20.50;28.90;;;;;;2258132;61;20374;-58
2021/12/19 07:30:56;0.00;0.00;0.62;0.00;0.00;0.62;6.10;3.20;;;20.40;28.80;;;;;;2257580;61;20741;-58
2021/12/19 07:33:41;0.00;0.00;0.62;0.00;0.00;0.62;4.20;2.67;;;20.40;28.80;;;;;;2257981;61;20386;-59
2021/12/19 07:36:29;0.00;0.00;0.62;0.00;0.00;0.62;4.17;2.93;;;20.40;28.90;;;;;;2257291;61;20422;-56
2021/12/19 07:39:26;0.00;0.00;0.62;0.00;0.00;0.62;5.00;2.90;;;20.40;28.90;;;;;;2260219;61;20617;-61
2021/12/19 07:42:12;0.00;0.00;0.62;0.00;0.00;0.62;4.10;2.70;;;20.40;28.90;;;;;;2259659;61;20370;-57
2021/12/19 07:44:56;0.00;0.00;0.62;0.00;0.00;0.62;3.43;2.43;;;20.40;28.90;;;;;;2257103;61;20382;-55
2021/12/19 07:47:42;0.00;0.00;0.62;0.00;0.00;0.62;5.43;2.70;;;20.40;28.90;;;;;;2258167;61;20366;-61
2021/12/19 07:50:27;0.00;0.00;0.62;0.00;0.00;0.62;5.37;2.70;;;20.40;28.90;;;;;;2257992;61;20382;-57
2021/12/19 07:53:13;0.00;0.00;0.62;0.00;0.00;0.62;5.90;2.70;;;20.30;28.80;;;;;;2257125;61;20394;-59
2021/12/19 07:55:57;0.00;0.00;0.62;0.00;0.00;0.62;2.83;2.20;;;20.30;28.80;;;;;;2257750;61;20451;-58
2021/12/19 07:58:43;0.00;0.00;0.62;0.00;0.00;0.62;3.27;1.80;;;20.30;28.80;;;;;;2257144;61;20588;-60
2021/12/19 08:01:28;0.00;0.00;0.62;0.00;0.00;0.62;6.83;2.23;;;20.30;28.90;;;;;;2258081;61;20398;-58
2021/12/19 08:04:12;0.00;0.00;0.62;0.00;0.00;0.62;2.80;1.93;;;20.30;28.90;;;;;;2257457;61;20379;-55
2021/12/19 08:06:57;0.00;0.00;0.62;0.00;0.00;0.62;2.70;1.93;;;20.30;28.90;;;;;;2257171;61;20443;-58
2021/12/19 08:09:59;0.00;0.00;0.62;0.00;0.00;0.62;6.33;3.07;;;20.30;29.00;;;;;;2258180;61;20570;-57
2021/12/19 08:12:43;0.00;0.00;0.62;0.00;0.00;0.62;4.20;2.57;;;20.20;28.90;;;;;;2260047;61;20789;-61
2021/12/19 08:15:29;0.00;0.00;0.62;0.00;0.00;0.62;2.73;1.80;;;20.20;28.90;;;;;;2257558;61;20358;-58
2021/12/19 08:18:14;0.00;0.00;0.62;0.00;0.00;0.62;5.23;2.43;;;20.20;28.90;;;;;;2257511;61;20394;-61
2021/12/19 08:20:58;0.00;0.00;0.62;0.00;0.00;0.62;3.40;2.60;;;20.20;28.90;;;;;;2257127;61;20409;-53
2021/12/19 08:23:42;0.00;0.00;0.62;0.00;0.00;0.62;3.60;1.97;;;20.20;28.90;;;;;;2257699;61;20386;-59
2021/12/19 08:26:27;0.00;0.00;0.62;0.00;0.00;0.62;7.00;2.20;;;20.20;29.50;;;;;;2257596;61;20407;-60
2021/12/19 08:29:13;0.00;0.00;0.62;0.00;0.00;0.62;3.20;2.10;;;20.20;28.90;;;;;;2257026;61;20425;-60
2021/12/19 08:31:59;0.00;0.00;0.62;0.00;0.00;0.62;2.13;1.90;;;20.10;28.90;;;;;;2257845;61;20374;-60
2021/12/19 08:34:43;0.00;0.00;0.62;0.00;0.00;0.62;3.10;1.80;;;20.10;28.90;;;;;;2257709;61;20858;-55
2021/12/19 08:37:28;0.00;0.00;0.62;0.00;0.00;0.62;5.70;2.30;;;20.10;29.00;;;;;;2257231;61;20723;-61
2021/12/19 08:40:12;0.00;0.00;0.62;0.00;0.00;0.62;4.60;2.37;;;20.10;29.00;;;;;;2257315;61;20758;-54
2021/12/19 08:42:58;0.00;0.00;0.62;0.00;0.00;0.62;2.60;2.30;;;20.10;29.00;;;;;;2257133;61;20414;-57
2021/12/19 08:45:43;0.00;0.00;0.62;0.00;0.00;0.62;6.30;1.93;;;20.10;29.00;;;;;;2257811;61;20582;-57
2021/12/19 08:48:28;0.00;0.00;0.62;0.00;0.00;0.62;6.27;2.07;;;20.10;29.00;;;;;;2257607;61;20386;-60
2021/12/19 08:51:14;0.00;0.00;0.62;0.00;0.00;0.62;3.57;2.27;;;20.00;29.00;;;;;;2257090;61;20426;-58
2021/12/19 08:54:02;0.00;0.00;0.62;0.00;0.00;0.62;4.50;2.40;;;20.00;29.00;;;;;;2257579;61;20496;-61
2021/12/19 08:56:47;0.00;0.00;0.62;0.00;0.00;0.62;2.87;2.13;;;20.00;29.10;;;;;;2257603;61;20614;-58
2021/12/19 08:59:31;0.00;0.00;0.62;0.00;0.00;0.62;4.00;2.00;;;20.00;29.10;;;;;;2257193;61;20815;-57
2021/12/19 09:02:16;0.00;0.00;0.62;0.00;0.00;0.62;3.50;2.13;;;20.00;29.10;;;;;;2257336;61;20438;-58
2021/12/19 09:05:02;0.00;0.00;0.62;0.00;0.00;0.62;3.23;2.00;;;20.00;29.20;;;;;;2257592;61;20382;-59
2021/12/19 09:07:47;0.00;0.00;0.62;0.00;0.00;0.62;3.90;2.40;;;20.00;29.20;;;;;;2257850;61;20451;-55
2021/12/19 09:10:32;0.00;0.00;0.62;0.00;0.00;0.62;4.43;2.27;;;19.90;29.10;;;;;;2254887;61;20382;-60
2021/12/19 09:13:17;0.00;0.00;0.62;0.00;0.00;0.62;4.00;1.60;;;20.00;29.20;;;;;;2257252;61;20414;-59
2021/12/19 09:16:02;0.00;0.00;0.62;0.00;0.00;0.62;4.27;2.20;;;20.00;29.20;;;;;;2258071;61;20394;-59
2021/12/19 09:18:48;0.00;0.00;0.62;0.00;0.00;0.62;2.90;1.80;;;20.00;29.30;;;;;;2257536;61;20449;-57
2021/12/19 09:21:34;0.00;0.00;0.62;0.00;0.00;0.62;3.10;1.70;;;20.00;29.30;;;;;;2257222;61;20769;-59
2021/12/19 09:24:19;0.00;0.00;0.62;0.00;0.00;0.62;2.80;1.60;;;20.00;29.30;;;;;;2257212;61;20465;-59
2021/12/19 09:27:05;0.00;0.00;0.62;0.00;0.00;0.62;2.77;1.40;;;20.00;29.30;;;;;;2257484;61;20402;-62
2021/12/19 09:29:50;0.00;0.00;0.62;0.00;0.00;0.62;2.60;2.03;;;20.00;29.30;;;;;;2257682;61;20355;-58
2021/12/19 09:32:35;0.00;0.00;0.62;0.00;0.00;0.62;3.40;1.90;;;20.00;29.40;;;;;;2257428;61;20363;-63
2021/12/19 09:35:19;0.00;0.00;0.62;0.00;0.00;0.62;1.80;1.57;;;20.00;29.40;;;;;;2256643;61;20371;-57
2021/12/19 09:38:06;0.00;0.00;0.62;0.00;0.00;0.62;2.83;1.67;;;20.00;29.40;;;;;;2260109;61;20394;-59
2021/12/19 09:40:58;0.00;0.00;0.62;0.00;0.00;0.62;3.17;1.50;;;20.10;29.40;;;;;;2257530;61;20355;-58
2021/12/19 09:43:43;0.00;0.00;0.62;0.00;0.00;0.62;2.47;1.43;;;20.10;29.40;;;;;;2256483;61;20379;-57
2021/12/19 09:46:39;0.00;0.00;0.62;0.00;0.00;0.62;3.57;1.67;;;20.10;29.40;;;;;;2257385;61;20642;-58
2021/12/19 09:49:24;0.00;0.00;0.62;0.00;0.00;0.62;2.57;1.50;;;20.20;29.50;;;;;;2257240;61;20550;-58
2021/12/19 09:52:09;0.00;0.00;0.62;0.00;0.00;0.62;2.20;1.50;;;20.20;29.60;;;;;;2257478;61;20355;-58
2021/12/19 09:54:55;0.00;0.00;0.62;0.00;0.00;0.62;2.70;1.50;;;20.20;29.60;;;;;;2257078;61;20648;-60
2021/12/19 09:57:40;0.00;0.00;0.62;0.00;0.00;0.62;2.00;1.60;;;20.30;29.70;;;;;;2256858;61;20370;-61
2021/12/19 10:00:25;0.00;0.00;0.62;0.00;0.00;0.62;2.20;1.50;;;20.30;29.70;;;;;;2257421;61;20391;-62
2021/12/19 10:03:10;0.00;0.00;0.62;0.00;0.00;0.62;3.00;1.50;;;20.40;29.70;;;;;;2257192;61;20386;-60
2021/12/19 10:06:15;0.00;0.00;0.62;0.00;0.00;0.62;2.20;1.50;;;20.50;29.80;;;;;;2256796;61;20363;-58
2021/12/19 10:09:13;0.00;0.00;0.62;0.00;0.00;0.62;2.27;1.63;;;20.50;29.80;;;;;;2256985;61;20385;-60
2021/12/19 10:12:24;0.00;0.00;0.62;0.00;0.00;0.62;4.30;2.07;;;20.50;29.70;;;;;;2256706;61;20748;-54
2021/12/19 10:15:12;0.00;0.00;0.62;0.00;0.00;0.62;4.10;2.00;;;20.50;29.70;;;;;;2257429;61;20391;-59
2021/12/19 10:18:05;0.00;0.00;0.62;0.00;0.00;0.62;3.63;2.00;;;20.60;29.80;;;;;;2257123;61;20387;-57
2021/12/19 10:20:53;0.00;0.00;0.62;0.00;0.00;0.62;2.40;1.50;;;20.60;29.70;;;;;;2256925;61;20363;-59
2021/12/19 10:23:38;0.00;0.00;0.62;0.00;0.00;0.62;3.93;1.87;;;20.60;29.70;;;;;;2256916;61;20758;-56
2021/12/19 10:26:23;0.00;0.00;0.62;0.00;0.00;0.62;1.90;1.40;;;20.70;29.80;;;;;;2257167;61;20362;-61
2021/12/19 10:29:10;0.00;0.00;0.62;0.00;0.00;0.62;3.07;2.00;;;20.70;29.80;;;;;;2257395;61;20374;-57
2021/12/19 10:32:03;0.00;0.00;0.62;0.00;0.00;0.62;2.93;2.07;;;20.80;29.90;;;;;;2257005;61;20743;-57
2021/12/19 10:34:47;0.00;0.00;0.62;0.00;0.00;0.62;1.90;1.50;;;20.80;29.90;;;;;;2256702;61;20390;-56
2021/12/19 10:37:34;0.00;0.00;0.62;0.00;0.00;0.62;2.57;1.50;;;20.80;29.90;;;;;;2257331;61;20723;-62
2021/12/19 10:40:18;0.00;0.00;0.62;0.00;0.00;0.62;2.77;1.70;;;20.80;29.80;;;;;;2257263;61;20448;-58
2021/12/19 10:43:05;0.00;0.00;0.62;0.00;0.00;0.62;3.40;2.10;;;20.90;29.90;;;;;;2256665;61;20394;-57
2021/12/19 10:45:55;0.00;0.00;0.62;0.00;0.00;0.62;4.20;1.40;;;21.00;30.00;;;;;;2539914;45;20735;-59
2021/12/19 10:48:41;0.00;0.00;0.62;0.00;0.00;0.62;2.23;1.60;;;20.90;29.90;;;;;;2257097;61;20790;-52
2021/12/19 10:51:26;0.00;0.00;0.62;0.00;0.00;0.62;2.93;1.90;;;21.00;30.00;;;;;;2257293;61;20358;-61
2021/12/19 10:54:10;0.00;0.00;0.62;0.00;0.00;0.62;2.40;1.97;;;21.00;30.00;;;;;;2257024;61;20382;-55
2021/12/19 10:57:06;0.00;0.00;0.62;0.00;0.00;0.62;2.80;2.00;;;21.00;30.00;;;;;;2256725;61;20362;-59
2021/12/19 10:59:51;0.00;0.00;0.62;0.00;0.00;0.62;2.73;1.87;;;21.10;30.00;;;;;;2257315;61;20414;-55
2021/12/19 11:02:43;0.00;0.00;0.62;0.00;0.00;0.62;2.97;1.80;;;21.10;30.00;;;;;;2257098;61;20355;-66
2021/12/19 11:05:38;0.00;0.00;0.62;0.00;0.00;0.62;3.30;1.77;;;21.10;30.00;;;;;;2252674;61;20376;-62
2021/12/19 11:08:30;0.00;0.00;0.62;0.00;0.00;0.62;3.40;2.07;;;21.20;30.10;;;;;;2253157;61;20360;-55
2021/12/19 11:11:49;0.00;0.00;0.62;0.00;0.00;0.62;3.53;2.87;;;21.20;30.20;;;;;;2252516;61;20405;-61
2021/12/19 11:14:39;0.00;0.00;0.62;0.00;0.00;0.62;4.33;3.17;;;21.20;30.00;;;;;;2253457;61;20593;-54
2021/12/19 11:17:26;0.00;0.00;0.62;0.00;0.00;0.62;4.70;3.10;;;21.20;30.00;;;;;;2253233;61;20387;-56
2021/12/19 11:20:12;0.00;0.00;0.62;0.00;0.00;0.62;4.33;3.10;;;21.30;30.00;;;;;;2249456;61;20427;-60
2021/12/19 11:22:57;0.00;0.00;0.62;0.00;0.00;0.62;4.37;3.20;;;21.30;29.90;;;;;;2252990;61;20415;-56
2021/12/19 11:25:43;0.00;0.00;0.62;0.00;0.00;0.62;5.00;3.50;;;21.30;29.90;;;;;;2252910;61;20379;-59
2021/12/19 11:28:28;0.00;0.00;0.62;0.00;0.00;0.62;5.70;4.10;;;21.30;29.90;;;;;;2253466;61;20359;-56
2021/12/19 11:31:13;0.00;0.00;0.62;0.00;0.00;0.62;5.90;4.20;;;21.40;29.90;;;;;;2254728;61;20754;-56
2021/12/19 11:34:11;0.00;0.00;0.62;0.00;0.00;0.62;4.53;3.53;;;21.40;29.90;;;;;;2256384;61;20434;-60
2021/12/19 11:37:03;0.00;0.00;0.62;0.00;0.00;0.62;3.50;3.00;;;21.40;29.90;;;;;;2257433;61;20711;-59
2021/12/19 11:39:51;0.00;0.00;0.62;0.00;0.00;0.62;4.30;3.27;;;21.40;30.00;;;;;;2257311;61;20387;-58
2021/12/19 11:42:41;0.00;0.00;0.62;0.00;0.00;0.62;4.07;3.43;;;21.40;30.00;;;;;;2253464;61;20363;-58
2021/12/19 11:48:22;0.00;0.00;0.62;0.00;0.00;0.62;4.53;3.60;;;21.40;30.00;;;;;;2256639;61;20402;-58
2021/12/19 11:51:16;0.00;0.00;0.62;0.00;0.00;0.62;5.00;3.37;;;21.50;30.00;;;;;;2257392;61;20359;-57
2021/12/19 11:54:15;0.00;0.00;0.62;0.00;0.00;0.62;3.77;3.33;;;21.50;30.00;;;;;;2256496;61;20766;-57
2021/12/19 11:57:07;0.00;0.00;0.62;0.00;0.00;0.62;5.57;4.27;;;21.50;30.00;;;;;;2256506;61;20594;-60
2021/12/19 12:00:26;0.00;0.00;0.62;0.00;0.00;0.62;3.80;3.30;;;21.60;30.10;;;;;;2257246;61;20391;-59
2021/12/19 12:03:26;0.00;0.00;0.62;0.00;0.00;0.62;4.30;3.37;;;21.60;30.00;;;;;;2257027;61;20403;-56